Ted Stevens Anchorage International Airport
PANC : now visible

Airfield :











YOU CAN JOIN US ON...

 
LOGIN :

Register | Disclaimer

   EN    FR    IT 

 









Legend :    VFR   Marginal VFR   IFR   Intensive IFR   Very Intensive IFR
Visi :
Ceiling :
>= 8 km
>= 3000ft
5 to 8 km
1000 to 3000 ft
1500m to 5 km
500 to 1000 ft
800 to 1500m
200 to 500 ft
< 800m
< 200 ft
Symbols :   Thunderstorms  Fog  Heavy snow  Heavy precipitations  Wind > 20 kt






- Airport Elevation : 152 ft
- IATA code : ANC


PANC - Ted Stevens Anchorage International

CURRENT METAR :
  • 272353Z 00000KT 10SM CLR M04/M13 A2959 RMK AO2 SLP023 4/019 T10441128 11039 21128 51006

EXPIRED METARs :
  • 272253Z 00000KT 10SM CLR M05/M12 A2959 RMK AO2 SLP022 T10501122
  • 272153Z 27004KT 10SM CLR M07/M13 A2958 RMK AO2 SLP019 T10671133

TAF PANC
Valid from the 28 at 00:00 until the 29 at 06:00 UTC


272328Z 2800/2906 33006KT P6SM SKC
FM281200 VRB03KT P6SM VCFG SCT005 BKN015
FM290000 VRB03KT P6SM VCFG SCT015



MET'MAP, your aeronautical weather chart ! - Copyright ORBIFLY December 2007 - Disclaimer

ORBIFLY MET'MAP TEAM :

Programming & Development : Alexandra Zaïnal
Concept & original design : Baudouin d'Aumeries
Assistance for programming : Marc-Olivier Méhu
Technical & hardware support : Manuel Goepfert

Contact : metmap@orbifly.com




SOURCES & CREDITS :

   NOAA       Earth
Advisory